sensor_id;sensor_type;location;lat;lon;timestamp;pressure;altitude;pressure_sealevel;temperature
19644;BMP180;9970;-36.854;174.870;2024-02-16T00:33:06;102252.00;;;25.70
19644;BMP180;9970;-36.854;174.870;2024-02-16T01:00:25;102246.00;;;26.00
19644;BMP180;9970;-36.854;174.870;2024-02-16T01:20:34;102241.00;;;26.20
19644;BMP180;9970;-36.854;174.870;2024-02-16T01:23:38;102235.00;;;26.20
19644;BMP180;9970;-36.854;174.870;2024-02-16T01:56:53;102230.00;;;26.20
19644;BMP180;9970;-36.854;174.870;2024-02-16T02:10:25;102215.00;;;26.10
19644;BMP180;9970;-36.854;174.870;2024-02-16T02:12:59;102212.00;;;26.10
19644;BMP180;9970;-36.854;174.870;2024-02-16T02:15:31;102211.00;;;26.00
19644;BMP180;9970;-36.854;174.870;2024-02-16T02:18:06;102212.00;;;26.00
19644;BMP180;9970;-36.854;174.870;2024-02-16T02:20:40;102211.00;;;26.00
19644;BMP180;9970;-36.854;174.870;2024-02-16T02:23:13;102202.00;;;25.90
19644;BMP180;9970;-36.854;174.870;2024-02-16T02:25:46;102199.00;;;25.80
19644;BMP180;9970;-36.854;174.870;2024-02-16T02:28:20;102204.00;;;25.90
19644;BMP180;9970;-36.854;174.870;2024-02-16T02:30:55;102202.00;;;25.80
19644;BMP180;9970;-36.854;174.870;2024-02-16T02:33:28;102202.00;;;25.90
19644;BMP180;9970;-36.854;174.870;2024-02-16T02:36:03;102200.00;;;25.90
19644;BMP180;9970;-36.854;174.870;2024-02-16T02:38:36;102196.00;;;25.90
19644;BMP180;9970;-36.854;174.870;2024-02-16T02:41:09;102189.00;;;25.90
19644;BMP180;9970;-36.854;174.870;2024-02-16T02:43:43;102193.00;;;25.90
19644;BMP180;9970;-36.854;174.870;2024-02-16T02:46:17;102197.00;;;25.90
19644;BMP180;9970;-36.854;174.870;2024-02-16T02:48:50;102194.00;;;25.90
19644;BMP180;9970;-36.854;174.870;2024-02-16T02:51:23;102192.00;;;25.90
19644;BMP180;9970;-36.854;174.870;2024-02-16T02:53:56;102188.00;;;26.00
19644;BMP180;9970;-36.854;174.870;2024-02-16T02:56:29;102186.00;;;25.90
19644;BMP180;9970;-36.854;174.870;2024-02-16T02:59:03;102185.00;;;25.90
19644;BMP180;9970;-36.854;174.870;2024-02-16T03:01:46;102183.00;;;25.90
19644;BMP180;9970;-36.854;174.870;2024-02-16T03:04:19;102183.00;;;25.90
19644;BMP180;9970;-36.854;174.870;2024-02-16T03:06:55;102180.00;;;25.90
19644;BMP180;9970;-36.854;174.870;2024-02-16T03:09:29;102183.00;;;25.90
19644;BMP180;9970;-36.854;174.870;2024-02-16T03:12:02;102185.00;;;25.90
19644;BMP180;9970;-36.854;174.870;2024-02-16T03:14:36;102178.00;;;25.80
19644;BMP180;9970;-36.854;174.870;2024-02-16T03:17:09;102177.00;;;25.80
19644;BMP180;9970;-36.854;174.870;2024-02-16T03:19:42;102179.00;;;25.90
19644;BMP180;9970;-36.854;174.870;2024-02-16T03:22:15;102173.00;;;25.80
19644;BMP180;9970;-36.854;174.870;2024-02-16T03:24:49;102169.00;;;25.80
19644;BMP180;9970;-36.854;174.870;2024-02-16T03:27:22;102171.00;;;25.80
19644;BMP180;9970;-36.854;174.870;2024-02-16T03:29:55;102178.00;;;25.80
19644;BMP180;9970;-36.854;174.870;2024-02-16T03:32:28;102170.00;;;25.70
19644;BMP180;9970;-36.854;174.870;2024-02-16T03:35:02;102175.00;;;25.80
19644;BMP180;9970;-36.854;174.870;2024-02-16T03:37:35;102168.00;;;25.80
19644;BMP180;9970;-36.854;174.870;2024-02-16T03:40:09;102170.00;;;25.70
19644;BMP180;9970;-36.854;174.870;2024-02-16T03:42:43;102170.00;;;25.70
19644;BMP180;9970;-36.854;174.870;2024-02-16T03:45:16;102174.00;;;25.70
19644;BMP180;9970;-36.854;174.870;2024-02-16T03:47:50;102176.00;;;25.70
19644;BMP180;9970;-36.854;174.870;2024-02-16T03:50:26;102164.00;;;25.70
19644;BMP180;9970;-36.854;174.870;2024-02-16T03:52:59;102170.00;;;25.60
19644;BMP180;9970;-36.854;174.870;2024-02-16T03:55:32;102171.00;;;25.70
19644;BMP180;9970;-36.854;174.870;2024-02-16T03:58:06;102154.00;;;25.60
19644;BMP180;9970;-36.854;174.870;2024-02-16T04:00:39;102160.00;;;25.60
19644;BMP180;9970;-36.854;174.870;2024-02-16T04:03:12;102159.00;;;25.60
19644;BMP180;9970;-36.854;174.870;2024-02-16T04:05:45;102157.00;;;25.60
19644;BMP180;9970;-36.854;174.870;2024-02-16T04:08:19;102156.00;;;25.60
19644;BMP180;9970;-36.854;174.870;2024-02-16T04:10:52;102162.00;;;25.60
19644;BMP180;9970;-36.854;174.870;2024-02-16T04:13:25;102163.00;;;25.60
19644;BMP180;9970;-36.854;174.870;2024-02-16T04:15:58;102160.00;;;25.60
19644;BMP180;9970;-36.854;174.870;2024-02-16T04:18:32;102161.00;;;25.60
19644;BMP180;9970;-36.854;174.870;2024-02-16T04:21:05;102166.00;;;25.60
19644;BMP180;9970;-36.854;174.870;2024-02-16T04:23:39;102164.00;;;25.60
19644;BMP180;9970;-36.854;174.870;2024-02-16T04:26:12;102162.00;;;25.50
19644;BMP180;9970;-36.854;174.870;2024-02-16T04:28:45;102165.00;;;25.50
19644;BMP180;9970;-36.854;174.870;2024-02-16T04:31:18;102165.00;;;25.50
19644;BMP180;9970;-36.854;174.870;2024-02-16T04:33:51;102160.00;;;25.50
19644;BMP180;9970;-36.854;174.870;2024-02-16T04:36:24;102158.00;;;25.40
19644;BMP180;9970;-36.854;174.870;2024-02-16T04:38:58;102161.00;;;25.50
19644;BMP180;9970;-36.854;174.870;2024-02-16T04:41:31;102165.00;;;25.50
19644;BMP180;9970;-36.854;174.870;2024-02-16T04:44:04;102156.00;;;25.40
19644;BMP180;9970;-36.854;174.870;2024-02-16T04:46:41;102155.00;;;25.40
19644;BMP180;9970;-36.854;174.870;2024-02-16T04:49:14;102148.00;;;25.50
19644;BMP180;9970;-36.854;174.870;2024-02-16T04:51:49;102155.00;;;25.50
19644;BMP180;9970;-36.854;174.870;2024-02-16T04:54:22;102151.00;;;25.50
19644;BMP180;9970;-36.854;174.870;2024-02-16T04:56:55;102159.00;;;25.50
19644;BMP180;9970;-36.854;174.870;2024-02-16T04:59:28;102151.00;;;25.50
19644;BMP180;9970;-36.854;174.870;2024-02-16T05:02:01;102154.00;;;25.50
19644;BMP180;9970;-36.854;174.870;2024-02-16T05:04:35;102153.00;;;25.50
19644;BMP180;9970;-36.854;174.870;2024-02-16T05:07:08;102153.00;;;25.50
19644;BMP180;9970;-36.854;174.870;2024-02-16T05:09:41;102153.00;;;25.50
19644;BMP180;9970;-36.854;174.870;2024-02-16T05:12:15;102154.00;;;25.50
19644;BMP180;9970;-36.854;174.870;2024-02-16T05:14:50;102149.00;;;25.40
19644;BMP180;9970;-36.854;174.870;2024-02-16T05:17:24;102148.00;;;25.50
19644;BMP180;9970;-36.854;174.870;2024-02-16T05:19:57;102150.00;;;25.50
19644;BMP180;9970;-36.854;174.870;2024-02-16T05:22:30;102151.00;;;25.50
19644;BMP180;9970;-36.854;174.870;2024-02-16T05:25:03;102143.00;;;25.40
19644;BMP180;9970;-36.854;174.870;2024-02-16T05:27:36;102155.00;;;25.40
19644;BMP180;9970;-36.854;174.870;2024-02-16T05:30:10;102141.00;;;25.40
19644;BMP180;9970;-36.854;174.870;2024-02-16T05:32:45;102153.00;;;25.40
19644;BMP180;9970;-36.854;174.870;2024-02-16T05:35:20;102151.00;;;25.40
19644;BMP180;9970;-36.854;174.870;2024-02-16T05:37:53;102140.00;;;25.40
19644;BMP180;9970;-36.854;174.870;2024-02-16T05:40:26;102151.00;;;25.40
19644;BMP180;9970;-36.854;174.870;2024-02-16T05:43:03;102142.00;;;25.30
19644;BMP180;9970;-36.854;174.870;2024-02-16T05:45:37;102133.00;;;25.30
19644;BMP180;9970;-36.854;174.870;2024-02-16T05:48:11;102143.00;;;25.30
19644;BMP180;9970;-36.854;174.870;2024-02-16T05:50:45;102137.00;;;25.30
19644;BMP180;9970;-36.854;174.870;2024-02-16T05:53:21;102144.00;;;25.30
19644;BMP180;9970;-36.854;174.870;2024-02-16T05:55:54;102144.00;;;25.20
19644;BMP180;9970;-36.854;174.870;2024-02-16T05:58:37;102149.00;;;25.20
19644;BMP180;9970;-36.854;174.870;2024-02-16T06:01:15;102154.00;;;25.20
19644;BMP180;9970;-36.854;174.870;2024-02-16T06:03:48;102152.00;;;25.20
19644;BMP180;9970;-36.854;174.870;2024-02-16T06:06:21;102152.00;;;25.10
19644;BMP180;9970;-36.854;174.870;2024-02-16T06:08:54;102161.00;;;25.10
19644;BMP180;9970;-36.854;174.870;2024-02-16T06:11:27;102159.00;;;25.00
19644;BMP180;9970;-36.854;174.870;2024-02-16T06:14:00;102159.00;;;25.00
19644;BMP180;9970;-36.854;174.870;2024-02-16T06:16:35;102154.00;;;25.00
19644;BMP180;9970;-36.854;174.870;2024-02-16T06:19:09;102158.00;;;24.90
19644;BMP180;9970;-36.854;174.870;2024-02-16T06:21:42;102161.00;;;24.90
19644;BMP180;9970;-36.854;174.870;2024-02-16T06:24:15;102163.00;;;24.90
19644;BMP180;9970;-36.854;174.870;2024-02-16T06:26:50;102162.00;;;24.90
19644;BMP180;9970;-36.854;174.870;2024-02-16T06:29:23;102159.00;;;24.90
19644;BMP180;9970;-36.854;174.870;2024-02-16T06:31:56;102164.00;;;24.80
19644;BMP180;9970;-36.854;174.870;2024-02-16T06:34:29;102166.00;;;24.80
19644;BMP180;9970;-36.854;174.870;2024-02-16T06:37:03;102164.00;;;24.80
19644;BMP180;9970;-36.854;174.870;2024-02-16T06:39:36;102171.00;;;24.70
19644;BMP180;9970;-36.854;174.870;2024-02-16T06:42:09;102170.00;;;24.70
19644;BMP180;9970;-36.854;174.870;2024-02-16T06:44:43;102166.00;;;24.70
19644;BMP180;9970;-36.854;174.870;2024-02-16T06:47:16;102173.00;;;24.70
19644;BMP180;9970;-36.854;174.870;2024-02-16T06:49:49;102175.00;;;24.70
19644;BMP180;9970;-36.854;174.870;2024-02-16T06:52:22;102175.00;;;24.60
19644;BMP180;9970;-36.854;174.870;2024-02-16T06:54:56;102179.00;;;24.60
19644;BMP180;9970;-36.854;174.870;2024-02-16T06:57:29;102177.00;;;24.60
19644;BMP180;9970;-36.854;174.870;2024-02-16T07:00:02;102189.00;;;24.60
19644;BMP180;9970;-36.854;174.870;2024-02-16T07:02:36;102185.00;;;24.60
19644;BMP180;9970;-36.854;174.870;2024-02-16T07:05:10;102193.00;;;24.50
19644;BMP180;9970;-36.854;174.870;2024-02-16T07:07:44;102192.00;;;24.50
19644;BMP180;9970;-36.854;174.870;2024-02-16T07:10:16;102202.00;;;24.50
19644;BMP180;9970;-36.854;174.870;2024-02-16T07:12:53;102205.00;;;24.50
19644;BMP180;9970;-36.854;174.870;2024-02-16T07:15:31;102204.00;;;24.50
19644;BMP180;9970;-36.854;174.870;2024-02-16T07:18:04;102198.00;;;24.50
19644;BMP180;9970;-36.854;174.870;2024-02-16T07:20:37;102195.00;;;24.50
19644;BMP180;9970;-36.854;174.870;2024-02-16T07:23:10;102202.00;;;24.50
19644;BMP180;9970;-36.854;174.870;2024-02-16T07:25:43;102223.00;;;24.40
19644;BMP180;9970;-36.854;174.870;2024-02-16T07:28:17;102219.00;;;24.40
19644;BMP180;9970;-36.854;174.870;2024-02-16T07:30:50;102214.00;;;24.40
19644;BMP180;9970;-36.854;174.870;2024-02-16T07:33:24;102214.00;;;24.30
19644;BMP180;9970;-36.854;174.870;2024-02-16T07:35:59;102216.00;;;24.30
19644;BMP180;9970;-36.854;174.870;2024-02-16T07:38:32;102226.00;;;24.30
19644;BMP180;9970;-36.854;174.870;2024-02-16T07:41:05;102223.00;;;24.30
19644;BMP180;9970;-36.854;174.870;2024-02-16T07:43:38;102233.00;;;24.20
19644;BMP180;9970;-36.854;174.870;2024-02-16T07:46:11;102229.00;;;24.20
19644;BMP180;9970;-36.854;174.870;2024-02-16T07:48:44;102228.00;;;24.20
19644;BMP180;9970;-36.854;174.870;2024-02-16T07:51:18;102231.00;;;24.20
19644;BMP180;9970;-36.854;174.870;2024-02-16T07:53:51;102236.00;;;24.20
19644;BMP180;9970;-36.854;174.870;2024-02-16T07:56:24;102241.00;;;24.10
19644;BMP180;9970;-36.854;174.870;2024-02-16T07:58:57;102237.00;;;24.10
19644;BMP180;9970;-36.854;174.870;2024-02-16T08:01:30;102237.00;;;24.10
19644;BMP180;9970;-36.854;174.870;2024-02-16T08:04:03;102238.00;;;24.10
19644;BMP180;9970;-36.854;174.870;2024-02-16T08:06:36;102251.00;;;24.10
19644;BMP180;9970;-36.854;174.870;2024-02-16T08:09:09;102255.00;;;24.10
19644;BMP180;9970;-36.854;174.870;2024-02-16T08:11:42;102254.00;;;24.10
19644;BMP180;9970;-36.854;174.870;2024-02-16T08:14:15;102264.00;;;24.00
19644;BMP180;9970;-36.854;174.870;2024-02-16T08:16:48;102268.00;;;24.00
19644;BMP180;9970;-36.854;174.870;2024-02-16T08:19:23;102260.00;;;24.00
19644;BMP180;9970;-36.854;174.870;2024-02-16T08:21:56;102263.00;;;24.00
19644;BMP180;9970;-36.854;174.870;2024-02-16T08:24:29;102268.00;;;23.90
19644;BMP180;9970;-36.854;174.870;2024-02-16T08:27:03;102272.00;;;23.90
19644;BMP180;9970;-36.854;174.870;2024-02-16T08:29:35;102274.00;;;23.90
19644;BMP180;9970;-36.854;174.870;2024-02-16T08:32:13;102281.00;;;23.90
19644;BMP180;9970;-36.854;174.870;2024-02-16T08:34:47;102292.00;;;23.90
19644;BMP180;9970;-36.854;174.870;2024-02-16T08:37:24;102286.00;;;23.90
19644;BMP180;9970;-36.854;174.870;2024-02-16T08:39:57;102297.00;;;23.90
19644;BMP180;9970;-36.854;174.870;2024-02-16T08:42:30;102299.00;;;23.90
19644;BMP180;9970;-36.854;174.870;2024-02-16T08:45:04;102297.00;;;23.80
19644;BMP180;9970;-36.854;174.870;2024-02-16T08:47:37;102297.00;;;23.80
19644;BMP180;9970;-36.854;174.870;2024-02-16T08:50:11;102311.00;;;23.80
19644;BMP180;9970;-36.854;174.870;2024-02-16T08:52:44;102308.00;;;23.80
19644;BMP180;9970;-36.854;174.870;2024-02-16T08:55:17;102310.00;;;23.80
19644;BMP180;9970;-36.854;174.870;2024-02-16T08:57:51;102300.00;;;23.70
19644;BMP180;9970;-36.854;174.870;2024-02-16T09:00:23;102296.00;;;23.70
19644;BMP180;9970;-36.854;174.870;2024-02-16T09:02:58;102307.00;;;23.70
19644;BMP180;9970;-36.854;174.870;2024-02-16T09:05:32;102309.00;;;23.70
19644;BMP180;9970;-36.854;174.870;2024-02-16T09:08:05;102313.00;;;23.70
19644;BMP180;9970;-36.854;174.870;2024-02-16T09:10:39;102306.00;;;23.60
19644;BMP180;9970;-36.854;174.870;2024-02-16T09:13:14;102307.00;;;23.60
19644;BMP180;9970;-36.854;174.870;2024-02-16T09:15:48;102311.00;;;23.60
19644;BMP180;9970;-36.854;174.870;2024-02-16T09:18:27;102300.00;;;23.60
19644;BMP180;9970;-36.854;174.870;2024-02-16T09:21:04;102300.00;;;23.60
19644;BMP180;9970;-36.854;174.870;2024-02-16T09:23:37;102310.00;;;23.60
19644;BMP180;9970;-36.854;174.870;2024-02-16T09:26:10;102311.00;;;23.60
19644;BMP180;9970;-36.854;174.870;2024-02-16T09:28:43;102315.00;;;23.60
19644;BMP180;9970;-36.854;174.870;2024-02-16T09:31:16;102311.00;;;23.50
19644;BMP180;9970;-36.854;174.870;2024-02-16T09:33:49;102316.00;;;23.50
19644;BMP180;9970;-36.854;174.870;2024-02-16T09:36:23;102318.00;;;23.50
19644;BMP180;9970;-36.854;174.870;2024-02-16T09:38:56;102319.00;;;23.50
19644;BMP180;9970;-36.854;174.870;2024-02-16T09:41:29;102324.00;;;23.50
19644;BMP180;9970;-36.854;174.870;2024-02-16T09:44:04;102318.00;;;23.50
19644;BMP180;9970;-36.854;174.870;2024-02-16T09:46:37;102321.00;;;23.50
19644;BMP180;9970;-36.854;174.870;2024-02-16T09:49:10;102320.00;;;23.50
19644;BMP180;9970;-36.854;174.870;2024-02-16T09:51:44;102323.00;;;23.50
19644;BMP180;9970;-36.854;174.870;2024-02-16T09:54:17;102320.00;;;23.50
19644;BMP180;9970;-36.854;174.870;2024-02-16T09:56:50;102323.00;;;23.50
19644;BMP180;9970;-36.854;174.870;2024-02-16T09:59:24;102319.00;;;23.40
19644;BMP180;9970;-36.854;174.870;2024-02-16T10:02:04;102318.00;;;23.50
19644;BMP180;9970;-36.854;174.870;2024-02-16T10:04:38;102322.00;;;23.50
19644;BMP180;9970;-36.854;174.870;2024-02-16T10:07:11;102320.00;;;23.40
19644;BMP180;9970;-36.854;174.870;2024-02-16T10:09:44;102312.00;;;23.40
19644;BMP180;9970;-36.854;174.870;2024-02-16T10:12:18;102316.00;;;23.40
19644;BMP180;9970;-36.854;174.870;2024-02-16T10:14:55;102323.00;;;23.40
19644;BMP180;9970;-36.854;174.870;2024-02-16T10:17:30;102311.00;;;23.40
19644;BMP180;9970;-36.854;174.870;2024-02-16T10:20:04;102311.00;;;23.40
19644;BMP180;9970;-36.854;174.870;2024-02-16T10:22:38;102317.00;;;23.30
19644;BMP180;9970;-36.854;174.870;2024-02-16T10:25:12;102312.00;;;23.30
19644;BMP180;9970;-36.854;174.870;2024-02-16T10:27:48;102318.00;;;23.30
19644;BMP180;9970;-36.854;174.870;2024-02-16T10:30:23;102315.00;;;23.20
19644;BMP180;9970;-36.854;174.870;2024-02-16T10:32:58;102314.00;;;23.20
19644;BMP180;9970;-36.854;174.870;2024-02-16T10:35:35;102302.00;;;23.20
19644;BMP180;9970;-36.854;174.870;2024-02-16T10:38:09;102307.00;;;23.20
19644;BMP180;9970;-36.854;174.870;2024-02-16T10:40:43;102302.00;;;23.20
19644;BMP180;9970;-36.854;174.870;2024-02-16T10:43:21;102307.00;;;23.20
19644;BMP180;9970;-36.854;174.870;2024-02-16T10:46:11;102313.00;;;23.20
19644;BMP180;9970;-36.854;174.870;2024-02-16T10:48:52;102312.00;;;23.20
19644;BMP180;9970;-36.854;174.870;2024-02-16T10:51:40;102311.00;;;23.20
19644;BMP180;9970;-36.854;174.870;2024-02-16T10:54:19;102311.00;;;23.20
19644;BMP180;9970;-36.854;174.870;2024-02-16T10:56:59;102303.00;;;23.20
19644;BMP180;9970;-36.854;174.870;2024-02-16T10:59:41;102314.00;;;23.20
19644;BMP180;9970;-36.854;174.870;2024-02-16T11:02:58;102305.00;;;23.10
19644;BMP180;9970;-36.854;174.870;2024-02-16T11:05:55;102316.00;;;23.10
19644;BMP180;9970;-36.854;174.870;2024-02-16T11:08:37;102314.00;;;23.10
19644;BMP180;9970;-36.854;174.870;2024-02-16T11:11:13;102308.00;;;23.10
19644;BMP180;9970;-36.854;174.870;2024-02-16T11:14:03;102317.00;;;23.10
19644;BMP180;9970;-36.854;174.870;2024-02-16T11:16:47;102309.00;;;23.00
19644;BMP180;9970;-36.854;174.870;2024-02-16T11:19:32;102309.00;;;23.00
19644;BMP180;9970;-36.854;174.870;2024-02-16T11:22:08;102310.00;;;23.00
19644;BMP180;9970;-36.854;174.870;2024-02-16T11:25:00;102313.00;;;23.00
19644;BMP180;9970;-36.854;174.870;2024-02-16T11:27:46;102313.00;;;23.00
19644;BMP180;9970;-36.854;174.870;2024-02-16T11:30:37;102309.00;;;23.00
19644;BMP180;9970;-36.854;174.870;2024-02-16T11:33:17;102308.00;;;23.00
19644;BMP180;9970;-36.854;174.870;2024-02-16T11:36:02;102304.00;;;23.00
19644;BMP180;9970;-36.854;174.870;2024-02-16T11:38:54;102311.00;;;23.00
19644;BMP180;9970;-36.854;174.870;2024-02-16T11:41:47;102306.00;;;23.00
19644;BMP180;9970;-36.854;174.870;2024-02-16T11:44:40;102305.00;;;22.90
19644;BMP180;9970;-36.854;174.870;2024-02-16T11:47:21;102301.00;;;22.90
19644;BMP180;9970;-36.854;174.870;2024-02-16T11:50:18;102297.00;;;22.90
19644;BMP180;9970;-36.854;174.870;2024-02-16T11:53:14;102297.00;;;22.90
19644;BMP180;9970;-36.854;174.870;2024-02-16T11:55:54;102299.00;;;22.90
19644;BMP180;9970;-36.854;174.870;2024-02-16T11:58:45;102296.00;;;22.90
19644;BMP180;9970;-36.854;174.870;2024-02-16T12:01:47;102294.00;;;22.90
19644;BMP180;9970;-36.854;174.870;2024-02-16T12:04:23;102294.00;;;22.80
19644;BMP180;9970;-36.854;174.870;2024-02-16T12:07:06;102291.00;;;22.80
19644;BMP180;9970;-36.854;174.870;2024-02-16T12:09:54;102288.00;;;22.80
19644;BMP180;9970;-36.854;174.870;2024-02-16T12:12:36;102294.00;;;22.80
19644;BMP180;9970;-36.854;174.870;2024-02-16T12:15:29;102287.00;;;22.80
19644;BMP180;9970;-36.854;174.870;2024-02-16T12:18:28;102287.00;;;22.80
19644;BMP180;9970;-36.854;174.870;2024-02-16T12:21:20;102281.00;;;22.80
19644;BMP180;9970;-36.854;174.870;2024-02-16T12:24:16;102284.00;;;22.80
19644;BMP180;9970;-36.854;174.870;2024-02-16T12:26:53;102285.00;;;22.80
19644;BMP180;9970;-36.854;174.870;2024-02-16T12:29:48;102288.00;;;22.80
19644;BMP180;9970;-36.854;174.870;2024-02-16T12:32:39;102280.00;;;22.80
19644;BMP180;9970;-36.854;174.870;2024-02-16T12:35:37;102272.00;;;22.80
19644;BMP180;9970;-36.854;174.870;2024-02-16T12:38:16;102274.00;;;22.80
19644;BMP180;9970;-36.854;174.870;2024-02-16T12:41:10;102265.00;;;22.80
19644;BMP180;9970;-36.854;174.870;2024-02-16T12:43:54;102270.00;;;22.80
19644;BMP180;9970;-36.854;174.870;2024-02-16T12:46:48;102273.00;;;22.80
19644;BMP180;9970;-36.854;174.870;2024-02-16T12:49:26;102277.00;;;22.80
19644;BMP180;9970;-36.854;174.870;2024-02-16T12:52:19;102271.00;;;22.80
19644;BMP180;9970;-36.854;174.870;2024-02-16T12:55:09;102262.00;;;22.80
19644;BMP180;9970;-36.854;174.870;2024-02-16T12:58:05;102260.00;;;22.80
19644;BMP180;9970;-36.854;174.870;2024-02-16T13:00:42;102260.00;;;22.80
19644;BMP180;9970;-36.854;174.870;2024-02-16T13:03:35;102260.00;;;22.80
19644;BMP180;9970;-36.854;174.870;2024-02-16T13:06:18;102262.00;;;22.80
19644;BMP180;9970;-36.854;174.870;2024-02-16T13:09:10;102259.00;;;22.80
19644;BMP180;9970;-36.854;174.870;2024-02-16T13:11:44;102264.00;;;22.80
19644;BMP180;9970;-36.854;174.870;2024-02-16T13:14:18;102263.00;;;22.80
19644;BMP180;9970;-36.854;174.870;2024-02-16T13:16:51;102260.00;;;22.80
19644;BMP180;9970;-36.854;174.870;2024-02-16T13:19:24;102259.00;;;22.80
19644;BMP180;9970;-36.854;174.870;2024-02-16T13:22:07;102259.00;;;22.80
19644;BMP180;9970;-36.854;174.870;2024-02-16T13:24:40;102257.00;;;22.80
19644;BMP180;9970;-36.854;174.870;2024-02-16T13:27:28;102256.00;;;22.80
19644;BMP180;9970;-36.854;174.870;2024-02-16T13:30:01;102257.00;;;22.80
19644;BMP180;9970;-36.854;174.870;2024-02-16T13:32:34;102261.00;;;22.80
19644;BMP180;9970;-36.854;174.870;2024-02-16T13:38:33;102258.00;;;22.70
19644;BMP180;9970;-36.854;174.870;2024-02-16T13:41:22;102264.00;;;22.70
19644;BMP180;9970;-36.854;174.870;2024-02-16T13:44:10;102258.00;;;22.60
19644;BMP180;9970;-36.854;174.870;2024-02-16T13:46:59;102264.00;;;22.60
19644;BMP180;9970;-36.854;174.870;2024-02-16T13:49:48;102263.00;;;22.60
19644;BMP180;9970;-36.854;174.870;2024-02-16T13:52:37;102257.00;;;22.60
19644;BMP180;9970;-36.854;174.870;2024-02-16T13:55:26;102258.00;;;22.60
19644;BMP180;9970;-36.854;174.870;2024-02-16T13:58:14;102256.00;;;22.60
19644;BMP180;9970;-36.854;174.870;2024-02-16T14:01:04;102265.00;;;22.50
19644;BMP180;9970;-36.854;174.870;2024-02-16T14:03:53;102257.00;;;22.50
19644;BMP180;9970;-36.854;174.870;2024-02-16T14:06:42;102250.00;;;22.40
19644;BMP180;9970;-36.854;174.870;2024-02-16T14:09:30;102254.00;;;22.40
19644;BMP180;9970;-36.854;174.870;2024-02-16T14:12:19;102253.00;;;22.40
19644;BMP180;9970;-36.854;174.870;2024-02-16T14:15:08;102253.00;;;22.40
19644;BMP180;9970;-36.854;174.870;2024-02-16T14:17:58;102260.00;;;22.30
19644;BMP180;9970;-36.854;174.870;2024-02-16T14:20:47;102256.00;;;22.30
19644;BMP180;9970;-36.854;174.870;2024-02-16T14:23:35;102249.00;;;22.30
19644;BMP180;9970;-36.854;174.870;2024-02-16T14:26:23;102251.00;;;22.30
19644;BMP180;9970;-36.854;174.870;2024-02-16T14:29:13;102247.00;;;22.20
19644;BMP180;9970;-36.854;174.870;2024-02-16T14:31:51;102251.00;;;22.20
19644;BMP180;9970;-36.854;174.870;2024-02-16T14:34:24;102244.00;;;22.20
19644;BMP180;9970;-36.854;174.870;2024-02-16T14:36:59;102248.00;;;22.20
19644;BMP180;9970;-36.854;174.870;2024-02-16T14:39:32;102243.00;;;22.20
19644;BMP180;9970;-36.854;174.870;2024-02-16T14:42:05;102247.00;;;22.20
19644;BMP180;9970;-36.854;174.870;2024-02-16T14:44:38;102246.00;;;22.10
19644;BMP180;9970;-36.854;174.870;2024-02-16T14:47:11;102241.00;;;22.10
19644;BMP180;9970;-36.854;174.870;2024-02-16T14:49:45;102243.00;;;22.10
19644;BMP180;9970;-36.854;174.870;2024-02-16T14:52:19;102241.00;;;22.10
19644;BMP180;9970;-36.854;174.870;2024-02-16T14:54:52;102242.00;;;22.10
19644;BMP180;9970;-36.854;174.870;2024-02-16T14:57:25;102242.00;;;22.10
19644;BMP180;9970;-36.854;174.870;2024-02-16T14:59:59;102237.00;;;22.10
19644;BMP180;9970;-36.854;174.870;2024-02-16T15:02:32;102231.00;;;22.10
19644;BMP180;9970;-36.854;174.870;2024-02-16T15:05:06;102231.00;;;22.10
19644;BMP180;9970;-36.854;174.870;2024-02-16T15:07:40;102225.00;;;22.10
19644;BMP180;9970;-36.854;174.870;2024-02-16T15:10:13;102237.00;;;22.10
19644;BMP180;9970;-36.854;174.870;2024-02-16T15:12:46;102232.00;;;22.10
19644;BMP180;9970;-36.854;174.870;2024-02-16T15:15:23;102238.00;;;22.00
19644;BMP180;9970;-36.854;174.870;2024-02-16T15:17:56;102236.00;;;22.00
19644;BMP180;9970;-36.854;174.870;2024-02-16T15:20:31;102239.00;;;22.00
19644;BMP180;9970;-36.854;174.870;2024-02-16T15:23:09;102233.00;;;22.00
19644;BMP180;9970;-36.854;174.870;2024-02-16T15:25:39;102238.00;;;22.00
19644;BMP180;9970;-36.854;174.870;2024-02-16T15:28:12;102236.00;;;21.90
19644;BMP180;9970;-36.854;174.870;2024-02-16T15:30:45;102235.00;;;21.90
19644;BMP180;9970;-36.854;174.870;2024-02-16T15:33:18;102235.00;;;21.90
19644;BMP180;9970;-36.854;174.870;2024-02-16T15:35:52;102231.00;;;21.90
19644;BMP180;9970;-36.854;174.870;2024-02-16T15:38:25;102229.00;;;21.90
19644;BMP180;9970;-36.854;174.870;2024-02-16T15:40:58;102234.00;;;21.90
19644;BMP180;9970;-36.854;174.870;2024-02-16T15:43:31;102234.00;;;21.90
19644;BMP180;9970;-36.854;174.870;2024-02-16T15:46:05;102223.00;;;21.90
19644;BMP180;9970;-36.854;174.870;2024-02-16T15:48:38;102225.00;;;21.90
19644;BMP180;9970;-36.854;174.870;2024-02-16T15:51:12;102229.00;;;21.90
19644;BMP180;9970;-36.854;174.870;2024-02-16T15:53:45;102224.00;;;21.90
19644;BMP180;9970;-36.854;174.870;2024-02-16T15:56:18;102233.00;;;21.90
19644;BMP180;9970;-36.854;174.870;2024-02-16T15:58:51;102232.00;;;21.90
19644;BMP180;9970;-36.854;174.870;2024-02-16T16:01:28;102230.00;;;21.90
19644;BMP180;9970;-36.854;174.870;2024-02-16T16:04:02;102233.00;;;21.90
19644;BMP180;9970;-36.854;174.870;2024-02-16T16:06:35;102220.00;;;21.90
19644;BMP180;9970;-36.854;174.870;2024-02-16T16:09:08;102223.00;;;21.90
19644;BMP180;9970;-36.854;174.870;2024-02-16T16:11:43;102219.00;;;21.80
19644;BMP180;9970;-36.854;174.870;2024-02-16T16:14:15;102226.00;;;21.80
19644;BMP180;9970;-36.854;174.870;2024-02-16T16:16:49;102219.00;;;21.80
19644;BMP180;9970;-36.854;174.870;2024-02-16T16:19:23;102216.00;;;21.80
19644;BMP180;9970;-36.854;174.870;2024-02-16T16:21:56;102226.00;;;21.80
19644;BMP180;9970;-36.854;174.870;2024-02-16T16:24:29;102220.00;;;21.80